< < Back
Terminal Aerodrome Forecast


Current Version              Previous Versions:   1  2  3  4  5  6  7  8  9  

Terminal Aerodrome Forecast

544
FTUS44 KOHX 262358 AAA
TAFCSV
TAF AMD
KCSV 262358Z 2700/2724 03010KT P6SM VCTS BKN050CB
     FM270300 VRB04KT P6SM BKN150
     FM270900 00000KT 4SM BR SCT250
     FM271300 18007KT P6SM BKN150=

Latest METAR

455
SAUS70 KWBC 272200 RRH
MTRCSV
METAR KCSV 272153Z AUTO 10004KT 4SM -RA FEW038 SCT060 BKN090 23/20 A3005
RMK AO2 RAB38 SLP159 P0006 T02330200


USA.gov is the U.S. government's official web portal to all federal, state and local government web resources and services.